Time;durP1;ratioP1;P1;durP2;ratioP2;P2;SDS_P1;SDS_P2;PMS_P1;PMS_P2;Temp;Humidity;BMP_temperature;BMP_pressure;BME280_temperature;BME280_humidity;BME280_pressure;Samples;Min_cycle;Max_cycle;Signal;HPM_P1;HPM_P2
2023/08/28 00:01:34;;;;;;;5.80;3.30;;;;;;;;;;4990271;28;20407;-58
2023/08/28 00:04:00;;;;;;;7.40;3.87;;;;;;;;;;4989323;28;20493;-58
2023/08/28 00:06:25;;;;;;;5.37;3.50;;;;;;;;;;4980972;28;21479;-59
2023/08/28 00:08:50;;;;;;;6.30;3.90;;;;;;;;;;4985103;28;20727;-58
2023/08/28 00:11:16;;;;;;;7.20;4.00;;;;;;;;;;4980986;28;20409;-59
2023/08/28 00:13:41;;;;;;;7.53;3.93;;;;;;;;;;4988498;28;20913;-58
2023/08/28 00:16:06;;;;;;;6.23;3.63;;;;;;;;;;4990765;28;20772;-59
2023/08/28 00:18:32;;;;;;;4.77;3.30;;;;;;;;;;4997077;28;20417;-58
2023/08/28 00:20:58;;;;;;;6.88;3.47;;;;;;;;;;4988976;28;21014;-58
2023/08/28 00:23:23;;;;;;;6.33;3.60;;;;;;;;;;4989818;28;20394;-59
2023/08/28 00:25:48;;;;;;;5.77;3.60;;;;;;;;;;4993204;28;20446;-58
2023/08/28 00:28:14;;;;;;;6.33;3.53;;;;;;;;;;4984570;28;20431;-58
2023/08/28 00:30:39;;;;;;;6.13;3.60;;;;;;;;;;4981576;28;20406;-59
2023/08/28 00:33:04;;;;;;;5.50;3.63;;;;;;;;;;4986110;28;20407;-59
2023/08/28 00:35:29;;;;;;;6.07;3.80;;;;;;;;;;4984461;28;20417;-58
2023/08/28 00:37:55;;;;;;;8.53;4.07;;;;;;;;;;4987734;28;20814;-58
2023/08/28 00:40:20;;;;;;;5.17;3.63;;;;;;;;;;4990416;28;20470;-59
2023/08/28 00:42:45;;;;;;;5.13;3.80;;;;;;;;;;4990457;28;20423;-59
2023/08/28 00:45:11;;;;;;;6.70;4.10;;;;;;;;;;4988813;28;20546;-59
2023/08/28 00:47:36;;;;;;;6.87;4.20;;;;;;;;;;4990738;28;20402;-58
2023/08/28 00:50:02;;;;;;;7.17;3.80;;;;;;;;;;4988899;28;20444;-59
2023/08/28 00:52:28;;;;;;;5.82;3.30;;;;;;;;;;4979941;28;21119;-58
2023/08/28 00:54:53;;;;;;;5.90;3.70;;;;;;;;;;4982067;28;20506;-58
2023/08/28 00:57:18;;;;;;;7.60;3.20;;;;;;;;;;4985838;28;20446;-59
2023/08/28 00:59:44;;;;;;;6.47;4.20;;;;;;;;;;4988151;28;21008;-59
2023/08/28 01:02:09;;;;;;;6.17;3.77;;;;;;;;;;4987036;28;20409;-59
2023/08/28 01:04:34;;;;;;;6.27;3.80;;;;;;;;;;4989687;28;20430;-58
2023/08/28 01:07:09;;;;;;;6.33;3.87;;;;;;;;;;4991737;28;20503;-58
2023/08/28 01:09:36;;;;;;;5.93;3.83;;;;;;;;;;5008807;28;20467;-59
2023/08/28 01:12:05;;;;;;;7.72;4.40;;;;;;;;;;5006452;28;20419;-59
2023/08/28 01:14:30;;;;;;;6.10;4.00;;;;;;;;;;4999078;28;21112;-59
2023/08/28 01:16:57;;;;;;;7.17;4.10;;;;;;;;;;4993974;28;20412;-59
2023/08/28 01:19:24;;;;;;;6.90;4.75;;;;;;;;;;4995475;28;21147;-58
2023/08/28 01:21:49;;;;;;;6.80;4.38;;;;;;;;;;5004870;28;20443;-58
2023/08/28 01:24:14;;;;;;;7.60;4.57;;;;;;;;;;5008112;28;20495;-58
2023/08/28 01:26:40;;;;;;;7.50;3.90;;;;;;;;;;4988762;28;20747;-58
2023/08/28 01:29:05;;;;;;;7.40;3.70;;;;;;;;;;4991225;28;20448;-59
2023/08/28 01:31:30;;;;;;;8.17;4.43;;;;;;;;;;4995839;28;21239;-58
2023/08/28 01:33:56;;;;;;;5.17;3.80;;;;;;;;;;4993040;28;20411;-58
2023/08/28 01:36:23;;;;;;;7.07;4.13;;;;;;;;;;4986498;28;20402;-58
2023/08/28 01:38:55;;;;;;;6.35;4.53;;;;;;;;;;4985059;28;21007;-59
2023/08/28 01:41:21;;;;;;;6.50;3.97;;;;;;;;;;4993964;28;20436;-58
2023/08/28 01:43:47;;;;;;;6.83;4.37;;;;;;;;;;4999051;28;20488;-58
2023/08/28 01:46:13;;;;;;;7.78;4.20;;;;;;;;;;4988805;28;21038;-59
2023/08/28 01:48:43;;;;;;;8.43;4.13;;;;;;;;;;4996751;28;20409;-58
2023/08/28 01:51:08;;;;;;;5.80;3.80;;;;;;;;;;4999390;28;20412;-59
2023/08/28 01:53:34;;;;;;;8.60;4.13;;;;;;;;;;4990758;28;20775;-58
2023/08/28 01:56:11;;;;;;;6.10;3.93;;;;;;;;;;4992759;28;20929;-59
2023/08/28 01:58:37;;;;;;;6.72;4.13;;;;;;;;;;5005238;28;20507;-59
2023/08/28 02:01:02;;;;;;;7.47;4.75;;;;;;;;;;4993830;28;20466;-59
2023/08/28 02:03:29;;;;;;;6.47;4.10;;;;;;;;;;5003213;28;20400;-58
2023/08/28 02:05:54;;;;;;;6.88;4.22;;;;;;;;;;4996159;28;20419;-59
2023/08/28 02:08:19;;;;;;;6.70;4.13;;;;;;;;;;4991271;28;20490;-58
2023/08/28 02:10:45;;;;;;;7.07;4.57;;;;;;;;;;4990827;28;21039;-59
2023/08/28 02:13:10;;;;;;;7.33;4.70;;;;;;;;;;4992343;28;20410;-59
2023/08/28 02:15:35;;;;;;;7.57;4.10;;;;;;;;;;4989523;28;20409;-59
2023/08/28 02:18:00;;;;;;;7.70;4.00;;;;;;;;;;4984367;28;20418;-60
2023/08/28 02:20:26;;;;;;;6.97;4.33;;;;;;;;;;4992455;28;20401;-59
2023/08/28 02:22:51;;;;;;;6.77;4.60;;;;;;;;;;4982080;28;20404;-59
2023/08/28 02:25:20;;;;;;;8.27;4.47;;;;;;;;;;4994423;28;20695;-59
2023/08/28 02:27:45;;;;;;;8.50;4.80;;;;;;;;;;5001066;28;20409;-58
2023/08/28 02:30:11;;;;;;;9.97;5.20;;;;;;;;;;4999846;28;20488;-59
2023/08/28 02:32:36;;;;;;;7.27;5.33;;;;;;;;;;5004648;28;20488;-58
2023/08/28 02:35:02;;;;;;;8.13;4.90;;;;;;;;;;5006280;28;20988;-60
2023/08/28 02:37:27;;;;;;;8.02;4.60;;;;;;;;;;5021371;28;20403;-59
2023/08/28 02:39:53;;;;;;;6.27;4.70;;;;;;;;;;5014852;28;20423;-59
2023/08/28 02:42:18;;;;;;;7.30;4.33;;;;;;;;;;5021614;28;20407;-59
2023/08/28 02:44:43;;;;;;;6.40;4.27;;;;;;;;;;5021242;28;20425;-59
2023/08/28 02:47:08;;;;;;;6.90;4.20;;;;;;;;;;5025367;28;20937;-59
2023/08/28 02:49:34;;;;;;;6.87;4.47;;;;;;;;;;5032367;28;20399;-59
2023/08/28 02:51:59;;;;;;;8.43;5.50;;;;;;;;;;5029898;28;20422;-59
2023/08/28 02:54:24;;;;;;;7.87;5.80;;;;;;;;;;5036060;28;20423;-59
2023/08/28 02:56:50;;;;;;;7.03;4.80;;;;;;;;;;5035721;28;20402;-58
2023/08/28 02:59:15;;;;;;;8.77;5.13;;;;;;;;;;5030296;28;20411;-59
2023/08/28 03:01:40;;;;;;;8.03;5.07;;;;;;;;;;5032732;28;20529;-59
2023/08/28 03:04:05;;;;;;;5.80;4.57;;;;;;;;;;5033055;28;20469;-59
2023/08/28 03:06:37;;;;;;;6.33;4.90;;;;;;;;;;5033818;28;20504;-59
2023/08/28 03:09:03;;;;;;;7.60;4.82;;;;;;;;;;5032908;28;20433;-59
2023/08/28 03:11:28;;;;;;;6.75;4.90;;;;;;;;;;5030322;28;20728;-59
2023/08/28 03:13:54;;;;;;;6.80;4.60;;;;;;;;;;5033672;28;21000;-59
2023/08/28 03:16:19;;;;;;;7.95;4.90;;;;;;;;;;5027893;28;20486;-59
2023/08/28 03:18:44;;;;;;;6.90;4.97;;;;;;;;;;5030317;28;20419;-59
2023/08/28 03:21:09;;;;;;;7.53;4.77;;;;;;;;;;5035299;28;20424;-59
2023/08/28 03:23:35;;;;;;;7.23;4.97;;;;;;;;;;5029749;28;20399;-59
2023/08/28 03:26:02;;;;;;;9.37;6.03;;;;;;;;;;5029563;28;21330;-60
2023/08/28 03:28:27;;;;;;;8.80;6.07;;;;;;;;;;5023604;28;20415;-59
2023/08/28 03:30:55;;;;;;;7.33;5.17;;;;;;;;;;5022553;28;20399;-59
2023/08/28 03:33:20;;;;;;;7.82;5.40;;;;;;;;;;5020225;28;20416;-59
2023/08/28 03:35:45;;;;;;;11.20;7.17;;;;;;;;;;5025080;28;20442;-59
2023/08/28 03:38:11;;;;;;;10.40;7.83;;;;;;;;;;5014740;28;20875;-59
2023/08/28 03:40:37;;;;;;;10.73;7.97;;;;;;;;;;5025926;28;20391;-59
2023/08/28 03:43:03;;;;;;;7.80;6.18;;;;;;;;;;5023625;28;20418;-59
2023/08/28 03:45:29;;;;;;;8.38;6.07;;;;;;;;;;5031557;28;20433;-59
2023/08/28 03:47:54;;;;;;;9.30;6.60;;;;;;;;;;5032636;28;20939;-59
2023/08/28 03:50:19;;;;;;;10.32;6.20;;;;;;;;;;5016578;28;20431;-59
2023/08/28 03:52:45;;;;;;;10.60;7.57;;;;;;;;;;5023939;28;20506;-59
2023/08/28 03:55:10;;;;;;;11.50;8.13;;;;;;;;;;5023519;28;20407;-59
2023/08/28 03:57:36;;;;;;;11.70;8.33;;;;;;;;;;5024244;28;20488;-59
2023/08/28 04:00:05;;;;;;;10.68;7.50;;;;;;;;;;5034606;28;20828;-60
2023/08/28 04:02:30;;;;;;;8.80;6.75;;;;;;;;;;5032541;28;20441;-59
2023/08/28 04:04:56;;;;;;;8.03;6.43;;;;;;;;;;5029080;28;20436;-59
2023/08/28 04:07:22;;;;;;;8.85;6.10;;;;;;;;;;5021703;28;20403;-59
2023/08/28 04:09:47;;;;;;;8.70;5.50;;;;;;;;;;5023390;28;20439;-59
2023/08/28 04:12:12;;;;;;;7.93;5.77;;;;;;;;;;5022092;28;20430;-59
2023/08/28 04:14:38;;;;;;;8.63;6.20;;;;;;;;;;5019677;28;20414;-59
2023/08/28 04:17:03;;;;;;;10.10;6.67;;;;;;;;;;5020070;28;20429;-59
2023/08/28 04:19:28;;;;;;;8.80;6.10;;;;;;;;;;4995031;28;20906;-59
2023/08/28 04:21:54;;;;;;;9.07;5.80;;;;;;;;;;4991897;28;20489;-59
2023/08/28 04:24:19;;;;;;;8.88;5.63;;;;;;;;;;4982824;28;20417;-59
2023/08/28 04:26:44;;;;;;;9.97;6.33;;;;;;;;;;4981581;28;20580;-59
2023/08/28 04:29:10;;;;;;;7.40;6.07;;;;;;;;;;4979312;28;20452;-59
2023/08/28 04:31:35;;;;;;;8.03;6.60;;;;;;;;;;4979937;28;20402;-59
2023/08/28 04:34:00;;;;;;;9.37;6.87;;;;;;;;;;4992097;28;20405;-61
2023/08/28 04:36:25;;;;;;;9.50;6.60;;;;;;;;;;4994480;28;20401;-59
2023/08/28 04:38:51;;;;;;;8.57;7.07;;;;;;;;;;5003215;28;20515;-59
2023/08/28 04:41:16;;;;;;;9.63;7.57;;;;;;;;;;5003593;28;20404;-59
2023/08/28 04:43:42;;;;;;;7.40;6.37;;;;;;;;;;4989523;28;20857;-59
2023/08/28 04:46:07;;;;;;;9.93;6.30;;;;;;;;;;5001210;28;20417;-59
2023/08/28 04:48:32;;;;;;;9.40;7.03;;;;;;;;;;4993599;28;20739;-59
2023/08/28 04:50:58;;;;;;;9.77;7.27;;;;;;;;;;4983891;28;20418;-59
2023/08/28 04:53:23;;;;;;;10.30;6.53;;;;;;;;;;4983083;28;20835;-59
2023/08/28 04:55:48;;;;;;;9.38;7.28;;;;;;;;;;4987641;28;20422;-59
2023/08/28 04:58:14;;;;;;;8.90;6.70;;;;;;;;;;4991861;28;20413;-60
2023/08/28 05:00:39;;;;;;;8.60;7.07;;;;;;;;;;5008529;28;20881;-59
2023/08/28 05:03:05;;;;;;;10.83;7.80;;;;;;;;;;4997316;28;20891;-60
2023/08/28 05:05:30;;;;;;;10.15;7.50;;;;;;;;;;5001458;28;20416;-59
2023/08/28 05:07:55;;;;;;;9.63;7.37;;;;;;;;;;5004665;28;20995;-59
2023/08/28 05:10:21;;;;;;;10.00;7.00;;;;;;;;;;4979172;28;20414;-59
2023/08/28 05:12:46;;;;;;;10.77;7.40;;;;;;;;;;4984503;28;20409;-59
2023/08/28 05:15:12;;;;;;;8.83;6.80;;;;;;;;;;4983319;28;20413;-59
2023/08/28 05:17:37;;;;;;;10.27;7.53;;;;;;;;;;4988725;28;20418;-59
2023/08/28 05:20:03;;;;;;;10.73;7.40;;;;;;;;;;4989930;28;20417;-60
2023/08/28 05:22:28;;;;;;;11.13;7.20;;;;;;;;;;4991759;28;20399;-60
2023/08/28 05:24:54;;;;;;;9.93;7.50;;;;;;;;;;4986783;28;20452;-59
2023/08/28 05:27:19;;;;;;;13.60;8.33;;;;;;;;;;4987121;28;20908;-59
2023/08/28 05:29:45;;;;;;;13.00;8.30;;;;;;;;;;4991321;28;20999;-59
2023/08/28 05:32:11;;;;;;;13.40;7.85;;;;;;;;;;4989698;28;20970;-60
2023/08/28 05:34:36;;;;;;;10.30;6.97;;;;;;;;;;4994361;28;21463;-59
2023/08/28 05:37:01;;;;;;;9.97;7.40;;;;;;;;;;4994414;28;20753;-59
2023/08/28 05:39:27;;;;;;;11.15;7.82;;;;;;;;;;5008740;28;20488;-59
2023/08/28 05:41:52;;;;;;;9.10;7.20;;;;;;;;;;5012304;28;20408;-59
2023/08/28 05:44:17;;;;;;;10.67;7.80;;;;;;;;;;5029184;28;20409;-58
2023/08/28 05:46:43;;;;;;;10.70;7.80;;;;;;;;;;5027997;28;20574;-58
2023/08/28 05:49:08;;;;;;;10.50;7.50;;;;;;;;;;5032258;28;20405;-59
2023/08/28 05:51:33;;;;;;;9.10;7.10;;;;;;;;;;5028974;28;20458;-58
2023/08/28 05:53:58;;;;;;;9.63;7.63;;;;;;;;;;5022390;28;20415;-58
2023/08/28 05:56:24;;;;;;;10.37;7.90;;;;;;;;;;5023245;28;20391;-58
2023/08/28 05:58:49;;;;;;;10.83;7.47;;;;;;;;;;5017252;28;20817;-58
2023/08/28 06:01:14;;;;;;;10.00;7.00;;;;;;;;;;5024378;28;20410;-58
2023/08/28 06:03:40;;;;;;;10.77;7.82;;;;;;;;;;5025229;28;20591;-58
2023/08/28 06:06:05;;;;;;;10.43;7.70;;;;;;;;;;5025526;28;20504;-58
2023/08/28 06:08:30;;;;;;;10.20;8.20;;;;;;;;;;5014651;28;20429;-58
2023/08/28 06:10:56;;;;;;;10.17;7.17;;;;;;;;;;5014732;28;20403;-58
2023/08/28 06:13:21;;;;;;;9.33;7.47;;;;;;;;;;5010843;28;20901;-58
2023/08/28 06:15:48;;;;;;;10.40;7.63;;;;;;;;;;5026474;28;21132;-58
2023/08/28 06:18:13;;;;;;;9.68;7.22;;;;;;;;;;5020031;28;20417;-58
2023/08/28 06:20:39;;;;;;;11.10;7.63;;;;;;;;;;5013351;28;20411;-58
2023/08/28 06:23:04;;;;;;;11.13;7.70;;;;;;;;;;5022931;28;20397;-59
2023/08/28 06:25:29;;;;;;;10.10;7.57;;;;;;;;;;5017420;28;20938;-58
2023/08/28 06:27:55;;;;;;;9.80;8.17;;;;;;;;;;5026347;28;20433;-58
2023/08/28 06:30:20;;;;;;;12.63;8.05;;;;;;;;;;5026839;28;20382;-58
2023/08/28 06:32:45;;;;;;;9.77;7.50;;;;;;;;;;5034912;28;20447;-58
2023/08/28 06:35:11;;;;;;;8.67;7.10;;;;;;;;;;5029581;28;20846;-58
2023/08/28 06:37:36;;;;;;;13.50;7.90;;;;;;;;;;5033531;28;20752;-58
2023/08/28 06:40:03;;;;;;;11.20;8.10;;;;;;;;;;5025849;28;20414;-59
2023/08/28 06:42:28;;;;;;;9.23;8.07;;;;;;;;;;5014428;28;20391;-58
2023/08/28 06:44:54;;;;;;;10.80;7.87;;;;;;;;;;5024001;28;20441;-58
2023/08/28 06:47:19;;;;;;;9.20;7.90;;;;;;;;;;5033618;28;20410;-58
2023/08/28 06:49:44;;;;;;;12.52;8.10;;;;;;;;;;5023361;28;20442;-58
2023/08/28 06:52:10;;;;;;;9.40;7.60;;;;;;;;;;5020639;28;20912;-58
2023/08/28 06:54:36;;;;;;;11.87;7.93;;;;;;;;;;5025106;28;20406;-58
2023/08/28 06:57:01;;;;;;;11.13;7.87;;;;;;;;;;5024637;28;20446;-59
2023/08/28 06:59:27;;;;;;;9.17;7.53;;;;;;;;;;5032826;28;20453;-58
2023/08/28 07:01:52;;;;;;;8.98;6.68;;;;;;;;;;5035010;28;20811;-58
2023/08/28 07:04:17;;;;;;;8.43;6.80;;;;;;;;;;5034442;28;20412;-58
2023/08/28 07:06:43;;;;;;;7.73;6.33;;;;;;;;;;5026136;28;20441;-58
2023/08/28 07:09:08;;;;;;;9.13;6.10;;;;;;;;;;5015515;28;20400;-59
2023/08/28 07:11:33;;;;;;;8.50;5.83;;;;;;;;;;5025615;28;20473;-59
2023/08/28 07:13:59;;;;;;;9.30;5.55;;;;;;;;;;5017304;28;20425;-58
2023/08/28 07:16:24;;;;;;;8.68;5.30;;;;;;;;;;5015205;28;21076;-59
2023/08/28 07:18:49;;;;;;;7.57;4.80;;;;;;;;;;5016336;28;21000;-59
2023/08/28 07:21:15;;;;;;;8.13;4.97;;;;;;;;;;5024526;28;20529;-59
2023/08/28 07:23:41;;;;;;;7.63;4.20;;;;;;;;;;5020543;28;20407;-59
2023/08/28 07:26:07;;;;;;;6.50;4.20;;;;;;;;;;5023787;28;20426;-59
2023/08/28 07:28:32;;;;;;;7.65;4.47;;;;;;;;;;5036638;28;20493;-59
2023/08/28 07:30:59;;;;;;;6.87;3.70;;;;;;;;;;5033660;28;20484;-59
2023/08/28 07:33:25;;;;;;;7.43;4.07;;;;;;;;;;5039464;28;20406;-59
2023/08/28 07:35:50;;;;;;;5.45;3.40;;;;;;;;;;5039787;28;20598;-59
2023/08/28 07:38:15;;;;;;;5.30;3.70;;;;;;;;;;5040659;28;21117;-59
2023/08/28 07:40:41;;;;;;;6.32;4.25;;;;;;;;;;5017736;28;20623;-59
2023/08/28 07:43:06;;;;;;;6.10;4.00;;;;;;;;;;5010997;28;20405;-59
2023/08/28 07:45:31;;;;;;;7.80;4.30;;;;;;;;;;5010318;28;20493;-59
2023/08/28 07:47:58;;;;;;;6.77;4.20;;;;;;;;;;5011472;28;20438;-59
2023/08/28 07:50:24;;;;;;;5.47;3.40;;;;;;;;;;5011133;28;20404;-59
2023/08/28 07:52:49;;;;;;;5.18;3.42;;;;;;;;;;5019087;28;20488;-59
2023/08/28 07:55:14;;;;;;;5.07;3.63;;;;;;;;;;5011057;28;20423;-58
2023/08/28 07:57:40;;;;;;;5.63;3.75;;;;;;;;;;5011446;28;20405;-59
2023/08/28 08:00:06;;;;;;;5.72;3.42;;;;;;;;;;5009849;28;20416;-59
2023/08/28 08:02:32;;;;;;;5.05;3.30;;;;;;;;;;5011072;28;20943;-59
2023/08/28 08:04:57;;;;;;;5.90;4.07;;;;;;;;;;5010929;28;20528;-59
2023/08/28 08:07:23;;;;;;;7.00;3.90;;;;;;;;;;5010113;28;20466;-59
2023/08/28 08:09:48;;;;;;;5.63;3.80;;;;;;;;;;5011349;28;20400;-59
2023/08/28 08:12:13;;;;;;;5.90;3.40;;;;;;;;;;5009958;28;20409;-59
2023/08/28 08:14:39;;;;;;;7.03;3.87;;;;;;;;;;5011103;28;20389;-59
2023/08/28 08:17:04;;;;;;;6.50;3.53;;;;;;;;;;5010330;28;20461;-59
2023/08/28 08:19:29;;;;;;;5.90;3.57;;;;;;;;;;5010022;28;20747;-59
2023/08/28 08:21:54;;;;;;;6.00;3.40;;;;;;;;;;5011068;28;20403;-59
2023/08/28 08:24:20;;;;;;;5.70;3.43;;;;;;;;;;5010538;28;20405;-59
2023/08/28 08:26:45;;;;;;;6.70;3.50;;;;;;;;;;5012699;28;20498;-59
2023/08/28 08:29:11;;;;;;;5.57;2.40;;;;;;;;;;5021766;28;20399;-59
2023/08/28 08:31:36;;;;;;;4.40;2.40;;;;;;;;;;5022588;28;20403;-59
2023/08/28 08:34:02;;;;;;;5.87;2.23;;;;;;;;;;5023127;28;20702;-59
2023/08/28 08:36:27;;;;;;;5.50;2.35;;;;;;;;;;5022290;28;20411;-59
2023/08/28 08:38:53;;;;;;;6.60;2.60;;;;;;;;;;5020990;28;20403;-59
2023/08/28 08:41:18;;;;;;;4.90;2.67;;;;;;;;;;5023468;28;20417;-59
2023/08/28 08:43:43;;;;;;;4.50;2.80;;;;;;;;;;5015730;28;20484;-59
2023/08/28 08:46:09;;;;;;;5.93;2.20;;;;;;;;;;5018507;28;20473;-59
2023/08/28 08:48:36;;;;;;;3.87;2.00;;;;;;;;;;5023411;28;20430;-59
2023/08/28 08:51:04;;;;;;;4.68;1.70;;;;;;;;;;5023470;28;20897;-59
2023/08/28 08:53:37;;;;;;;4.90;1.40;;;;;;;;;;5021100;28;20411;-58
2023/08/28 08:56:03;;;;;;;2.85;1.40;;;;;;;;;;5018922;28;20489;-59
2023/08/28 08:58:30;;;;;;;3.10;1.35;;;;;;;;;;5024013;28;20415;-59
2023/08/28 09:00:55;;;;;;;3.17;1.23;;;;;;;;;;5022585;28;20498;-59
2023/08/28 09:03:21;;;;;;;1.77;1.00;;;;;;;;;;5017992;28;20410;-59
2023/08/28 09:05:46;;;;;;;2.63;1.10;;;;;;;;;;5022609;28;20419;-59
2023/08/28 09:08:11;;;;;;;2.63;1.10;;;;;;;;;;5023773;28;20403;-59
2023/08/28 09:10:37;;;;;;;3.47;1.40;;;;;;;;;;5018822;28;20398;-58
2023/08/28 09:13:02;;;;;;;3.60;1.60;;;;;;;;;;5022025;28;21827;-60
2023/08/28 09:15:27;;;;;;;2.60;0.90;;;;;;;;;;5023279;28;20412;-59
2023/08/28 09:17:53;;;;;;;1.80;0.70;;;;;;;;;;5022179;28;20411;-59
2023/08/28 09:20:19;;;;;;;1.40;0.80;;;;;;;;;;5019942;28;20842;-59
2023/08/28 09:22:45;;;;;;;2.33;0.80;;;;;;;;;;5022715;28;20421;-59
2023/08/28 09:25:10;;;;;;;2.17;0.70;;;;;;;;;;5021657;28;20449;-59
2023/08/28 09:27:40;;;;;;;2.57;0.87;;;;;;;;;;5019548;28;20482;-59
2023/08/28 09:30:07;;;;;;;2.42;0.70;;;;;;;;;;5021445;28;21382;-59
2023/08/28 09:32:32;;;;;;;1.50;0.80;;;;;;;;;;5021649;28;20403;-59
2023/08/28 09:34:57;;;;;;;1.40;0.53;;;;;;;;;;5021308;28;20414;-59
2023/08/28 09:37:22;;;;;;;2.30;0.60;;;;;;;;;;5020013;28;20533;-59
2023/08/28 09:39:54;;;;;;;2.07;0.60;;;;;;;;;;5023808;28;20435;-59
2023/08/28 09:42:22;;;;;;;1.48;0.55;;;;;;;;;;5022557;28;20781;-59
2023/08/28 09:44:48;;;;;;;2.53;0.50;;;;;;;;;;5023192;28;20413;-59
2023/08/28 09:47:19;;;;;;;2.33;0.60;;;;;;;;;;5032092;28;20410;-59
2023/08/28 09:49:44;;;;;;;2.75;0.70;;;;;;;;;;5033147;28;20403;-59
2023/08/28 09:52:09;;;;;;;1.13;0.50;;;;;;;;;;5032054;28;20481;-58
2023/08/28 09:54:35;;;;;;;2.47;0.70;;;;;;;;;;5034108;28;21190;-58
2023/08/28 09:57:00;;;;;;;1.27;0.40;;;;;;;;;;5038322;28;20431;-58
2023/08/28 09:59:26;;;;;;;1.80;0.60;;;;;;;;;;5028190;28;20447;-58
2023/08/28 10:01:52;;;;;;;0.77;0.40;;;;;;;;;;5025522;28;20549;-58
2023/08/28 10:04:19;;;;;;;1.35;0.60;;;;;;;;;;5036631;28;20456;-59
2023/08/28 10:06:49;;;;;;;2.53;0.43;;;;;;;;;;5036628;28;20413;-58
2023/08/28 10:09:18;;;;;;;1.80;0.52;;;;;;;;;;5022684;28;20470;-59
2023/08/28 10:11:45;;;;;;;1.83;0.67;;;;;;;;;;5015629;28;20494;-59
2023/08/28 10:14:10;;;;;;;2.38;0.60;;;;;;;;;;5013358;28;20941;-58
2023/08/28 10:16:36;;;;;;;2.50;0.60;;;;;;;;;;5014024;28;20433;-60
2023/08/28 10:19:06;;;;;;;1.17;0.50;;;;;;;;;;5016109;28;20897;-58
2023/08/28 10:21:31;;;;;;;2.00;0.60;;;;;;;;;;5011541;28;20419;-59
2023/08/28 10:23:56;;;;;;;1.30;0.50;;;;;;;;;;5015786;28;20440;-59
2023/08/28 10:26:22;;;;;;;1.97;0.50;;;;;;;;;;5018842;28;20487;-59
2023/08/28 10:28:47;;;;;;;2.10;0.60;;;;;;;;;;5007113;28;20402;-58
2023/08/28 10:31:12;;;;;;;1.97;0.60;;;;;;;;;;5025686;28;20917;-59
2023/08/28 10:33:37;;;;;;;1.37;0.50;;;;;;;;;;5023092;28;20423;-59
2023/08/28 10:36:03;;;;;;;1.25;0.50;;;;;;;;;;5021332;28;20532;-59
2023/08/28 10:38:28;;;;;;;2.10;0.63;;;;;;;;;;5024982;28;20411;-59
2023/08/28 10:40:54;;;;;;;2.00;0.80;;;;;;;;;;5025061;28;20465;-59
2023/08/28 10:43:20;;;;;;;2.03;0.67;;;;;;;;;;5029436;28;20460;-59
2023/08/28 10:45:45;;;;;;;3.35;0.98;;;;;;;;;;5022368;28;20427;-59
2023/08/28 10:48:10;;;;;;;1.55;0.50;;;;;;;;;;5024725;28;20406;-59
2023/08/28 10:50:36;;;;;;;1.85;0.50;;;;;;;;;;5021883;28;20955;-59
2023/08/28 10:53:02;;;;;;;2.40;0.60;;;;;;;;;;5023412;28;21029;-59
2023/08/28 10:55:27;;;;;;;1.47;0.60;;;;;;;;;;5025090;28;20387;-59
2023/08/28 10:57:52;;;;;;;1.90;0.50;;;;;;;;;;5032174;28;20403;-58
2023/08/28 11:00:18;;;;;;;1.37;0.60;;;;;;;;;;5031347;28;20407;-59
2023/08/28 11:03:03;;;;;;;2.63;0.63;;;;;;;;;;5029434;28;20416;-59
2023/08/28 11:05:28;;;;;;;0.95;0.50;;;;;;;;;;5036110;28;20428;-59
2023/08/28 11:07:54;;;;;;;1.20;0.50;;;;;;;;;;5033539;28;20398;-58
2023/08/28 11:10:20;;;;;;;1.37;0.40;;;;;;;;;;5031690;28;20407;-59
2023/08/28 11:12:53;;;;;;;2.63;0.60;;;;;;;;;;5033543;28;20405;-58
2023/08/28 11:15:38;;;;;;;3.15;0.50;;;;;;;;;;5033934;28;20736;-59
2023/08/28 11:18:19;;;;;;;1.10;0.50;;;;;;;;;;5031808;28;20414;-59
2023/08/28 11:20:46;;;;;;;1.92;0.70;;;;;;;;;;5031084;28;20514;-58
2023/08/28 11:23:18;;;;;;;1.42;0.60;;;;;;;;;;5024101;28;20483;-59
2023/08/28 11:25:43;;;;;;;2.28;0.80;;;;;;;;;;5036221;28;20433;-59
2023/08/28 11:28:25;;;;;;;1.77;0.63;;;;;;;;;;5030540;28;21143;-59
2023/08/28 11:30:50;;;;;;;4.18;0.70;;;;;;;;;;5029910;28;20405;-58
2023/08/28 11:33:15;;;;;;;2.40;0.57;;;;;;;;;;5033989;28;20393;-59
2023/08/28 11:35:40;;;;;;;1.30;0.70;;;;;;;;;;5021146;28;20411;-59
2023/08/28 11:38:06;;;;;;;1.53;0.53;;;;;;;;;;5020875;28;20478;-59
2023/08/28 11:40:31;;;;;;;1.73;0.60;;;;;;;;;;5024093;28;20399;-58
2023/08/28 11:43:03;;;;;;;2.90;0.50;;;;;;;;;;5021923;28;20411;-59
2023/08/28 11:45:28;;;;;;;1.98;0.60;;;;;;;;;;5036378;28;20520;-58
2023/08/28 11:47:53;;;;;;;2.80;0.55;;;;;;;;;;5044820;28;20458;-59
2023/08/28 11:50:19;;;;;;;1.40;0.60;;;;;;;;;;5043721;28;20908;-59
2023/08/28 11:52:50;;;;;;;2.40;0.50;;;;;;;;;;5040830;28;20405;-59
2023/08/28 11:55:15;;;;;;;1.48;0.50;;;;;;;;;;5041701;28;20799;-59
2023/08/28 11:57:41;;;;;;;2.83;0.63;;;;;;;;;;5035841;28;20852;-59
2023/08/28 12:00:11;;;;;;;1.40;0.50;;;;;;;;;;5034451;28;20421;-59
2023/08/28 12:02:36;;;;;;;1.30;0.60;;;;;;;;;;5035314;28;20478;-58
2023/08/28 12:05:04;;;;;;;1.67;0.70;;;;;;;;;;5031645;28;20485;-59
2023/08/28 12:07:29;;;;;;;2.15;0.60;;;;;;;;;;5031412;28;20892;-58
2023/08/28 12:09:57;;;;;;;1.43;0.60;;;;;;;;;;5036573;28;21391;-58
2023/08/28 12:12:23;;;;;;;1.73;0.80;;;;;;;;;;5028353;28;20476;-58
2023/08/28 12:14:49;;;;;;;1.13;0.43;;;;;;;;;;5032669;28;20447;-58
2023/08/28 12:17:15;;;;;;;1.60;0.55;;;;;;;;;;5031354;28;20405;-59
2023/08/28 12:19:41;;;;;;;1.77;0.40;;;;;;;;;;5034096;28;20453;-58
2023/08/28 12:22:07;;;;;;;1.63;0.55;;;;;;;;;;5042762;28;20409;-59
2023/08/28 12:24:32;;;;;;;2.20;0.70;;;;;;;;;;5042970;28;20899;-59
2023/08/28 12:26:58;;;;;;;1.87;0.60;;;;;;;;;;5038389;28;20859;-58
2023/08/28 12:29:24;;;;;;;1.13;0.50;;;;;;;;;;5042888;28;20393;-59
2023/08/28 12:31:49;;;;;;;2.10;0.43;;;;;;;;;;5042230;28;20413;-58
2023/08/28 12:34:14;;;;;;;1.93;0.40;;;;;;;;;;5039324;28;20424;-58
2023/08/28 12:36:43;;;;;;;1.40;0.50;;;;;;;;;;5041402;28;20426;-58
2023/08/28 12:39:10;;;;;;;2.53;0.70;;;;;;;;;;5042805;28;20416;-58
2023/08/28 12:41:36;;;;;;;1.77;0.60;;;;;;;;;;5040658;28;20389;-58
2023/08/28 12:44:01;;;;;;;1.60;0.60;;;;;;;;;;5037668;28;20504;-59
2023/08/28 12:46:26;;;;;;;2.00;0.70;;;;;;;;;;5036044;28;20403;-58
2023/08/28 12:48:52;;;;;;;1.70;0.57;;;;;;;;;;5043449;28;20470;-58
2023/08/28 12:51:18;;;;;;;2.07;0.60;;;;;;;;;;5039331;28;20500;-58
2023/08/28 12:53:43;;;;;;;1.20;0.50;;;;;;;;;;5041163;28;20928;-58
2023/08/28 12:56:09;;;;;;;1.83;0.63;;;;;;;;;;5042965;28;20409;-58
2023/08/28 12:58:34;;;;;;;1.73;0.50;;;;;;;;;;5041577;28;20401;-58
2023/08/28 13:00:59;;;;;;;0.70;0.50;;;;;;;;;;5038916;28;20473;-58
2023/08/28 13:03:25;;;;;;;1.47;0.60;;;;;;;;;;5041618;28;20477;-58
2023/08/28 13:05:50;;;;;;;2.50;0.50;;;;;;;;;;5035421;28;20410;-58
2023/08/28 13:08:15;;;;;;;1.40;0.50;;;;;;;;;;5026344;28;20447;-58
2023/08/28 13:10:41;;;;;;;0.97;0.43;;;;;;;;;;5023776;28;21086;-58
2023/08/28 13:13:06;;;;;;;1.93;0.60;;;;;;;;;;5022790;28;20916;-59
2023/08/28 13:15:31;;;;;;;1.60;0.70;;;;;;;;;;5019123;28;20399;-58
2023/08/28 13:17:57;;;;;;;0.93;0.50;;;;;;;;;;5021812;28;20441;-58
2023/08/28 13:20:22;;;;;;;1.13;0.50;;;;;;;;;;5033968;28;20395;-58
2023/08/28 13:22:47;;;;;;;1.40;0.60;;;;;;;;;;5033033;28;20413;-58
2023/08/28 13:25:12;;;;;;;1.50;0.50;;;;;;;;;;5033037;28;20413;-58
2023/08/28 13:27:38;;;;;;;2.00;0.73;;;;;;;;;;5035546;28;20421;-58
2023/08/28 13:30:07;;;;;;;1.30;0.50;;;;;;;;;;5034329;28;20470;-59
2023/08/28 13:32:32;;;;;;;1.25;0.60;;;;;;;;;;5026976;28;20404;-58
2023/08/28 13:34:57;;;;;;;2.17;0.60;;;;;;;;;;5012854;28;20424;-58
2023/08/28 13:37:22;;;;;;;1.53;0.47;;;;;;;;;;5007923;28;20497;-58
2023/08/28 13:39:48;;;;;;;1.63;0.60;;;;;;;;;;5012642;28;20416;-58
2023/08/28 13:42:13;;;;;;;2.60;0.60;;;;;;;;;;5019995;28;20476;-58
2023/08/28 13:44:38;;;;;;;2.70;0.60;;;;;;;;;;5014317;28;20408;-58
2023/08/28 13:47:04;;;;;;;2.13;0.50;;;;;;;;;;5017036;28;20424;-59
2023/08/28 13:49:29;;;;;;;1.33;0.50;;;;;;;;;;5006436;28;20421;-58
2023/08/28 13:51:54;;;;;;;1.83;0.67;;;;;;;;;;4994495;28;20399;-58
2023/08/28 13:54:20;;;;;;;2.17;0.60;;;;;;;;;;4994117;28;20432;-58
2023/08/28 13:56:45;;;;;;;2.27;0.67;;;;;;;;;;4993734;28;20568;-58
2023/08/28 13:59:11;;;;;;;1.60;0.60;;;;;;;;;;4987942;28;21129;-58
2023/08/28 14:01:36;;;;;;;1.20;0.60;;;;;;;;;;4989611;28;20394;-58
2023/08/28 14:04:01;;;;;;;1.20;0.50;;;;;;;;;;4995608;28;20469;-58
2023/08/28 14:06:28;;;;;;;1.83;0.60;;;;;;;;;;4998492;28;20403;-58
2023/08/28 14:08:53;;;;;;;3.10;0.80;;;;;;;;;;4995501;28;20423;-58
2023/08/28 14:11:18;;;;;;;2.07;0.70;;;;;;;;;;4994135;28;20457;-58
2023/08/28 14:13:44;;;;;;;1.73;0.60;;;;;;;;;;4988056;28;20421;-58
2023/08/28 14:16:09;;;;;;;2.03;0.60;;;;;;;;;;4999015;28;20964;-59
2023/08/28 14:18:34;;;;;;;1.60;0.70;;;;;;;;;;4988924;28;20398;-59
2023/08/28 14:21:00;;;;;;;2.78;0.80;;;;;;;;;;4989513;28;20418;-58
2023/08/28 14:23:25;;;;;;;2.10;0.65;;;;;;;;;;4992374;28;20402;-58
2023/08/28 14:25:50;;;;;;;1.90;0.75;;;;;;;;;;4989626;28;20449;-58
2023/08/28 14:28:16;;;;;;;2.42;0.60;;;;;;;;;;4995937;28;20525;-58
2023/08/28 14:30:41;;;;;;;2.17;0.50;;;;;;;;;;4997268;28;20564;-58
2023/08/28 14:33:06;;;;;;;3.77;0.83;;;;;;;;;;4994419;28;20424;-58